Time;durP1;ratioP1;P1;durP2;ratioP2;P2;SDS_P1;SDS_P2;PMS_P1;PMS_P2;Temp;Humidity;BMP_temperature;BMP_pressure;BME280_temperature;BME280_humidity;BME280_pressure;Samples;Min_cycle;Max_cycle;Signal;HPM_P1;HPM_P2
2022/05/26 00:01:36;;;;;;;10.93;9.80;;;;;;;13.35;84.95;101019.72;5033104;28;20462;-47
2022/05/26 00:04:05;;;;;;;11.33;8.90;;;;;;;13.38;85.13;101021.97;5032935;28;21075;-47
2022/05/26 00:06:33;;;;;;;11.70;10.67;;;;;;;13.35;85.21;101025.88;5033571;28;20511;-48
2022/05/26 00:09:01;;;;;;;16.33;10.97;;;;;;;13.36;85.54;101029.38;5033178;28;20436;-50
2022/05/26 00:11:31;;;;;;;16.60;10.50;;;;;;;13.38;84.95;101028.13;5032934;28;20452;-48
2022/05/26 00:14:07;;;;;;;16.33;10.40;;;;;;;13.39;85.72;101024.44;5032645;28;21089;-48
2022/05/26 00:16:34;;;;;;;18.30;10.13;;;;;;;13.37;85.66;101029.19;5033249;28;20804;-45
2022/05/26 00:19:02;;;;;;;22.27;11.40;;;;;;;13.34;85.72;101021.56;5033194;28;20471;-49
2022/05/26 00:21:32;;;;;;;24.23;11.27;;;;;;;13.36;85.57;101024.84;5032815;28;20491;-46
2022/05/26 00:23:59;;;;;;;24.00;10.50;;;;;;;13.36;84.90;101024.03;5032615;28;20471;-47
2022/05/26 00:26:28;;;;;;;15.53;10.90;;;;;;;13.38;84.79;101021.97;5032831;28;20432;-50
2022/05/26 00:28:56;;;;;;;21.47;10.30;;;;;;;13.38;85.41;101021.97;5032770;28;20436;-46
2022/05/26 00:31:24;;;;;;;24.17;11.17;;;;;;;13.36;85.84;101016.00;5032448;28;20460;-46
2022/05/26 00:33:51;;;;;;;24.43;11.80;;;;;;;13.34;86.10;101013.53;5032424;28;20554;-45
2022/05/26 00:36:37;;;;;;;18.40;10.20;;;;;;;13.32;86.42;101019.09;5032655;28;20471;-48
2022/05/26 00:39:08;;;;;;;29.90;12.60;;;;;;;13.32;87.29;101021.75;5032624;28;20959;-45
2022/05/26 00:41:39;;;;;;;27.33;11.60;;;;;;;13.32;87.84;101020.13;5032516;28;20452;-47
2022/05/26 00:44:07;;;;;;;19.17;10.13;;;;;;;13.32;88.13;101021.75;5032146;28;20467;-50
2022/05/26 00:46:46;;;;;;;23.93;10.70;;;;;;;13.32;88.92;101028.97;5032648;28;20428;-45
2022/05/26 00:49:22;;;;;;;24.07;10.67;;;;;;;13.32;89.06;101026.28;5032437;28;20436;-47
2022/05/26 00:51:50;;;;;;;19.17;12.20;;;;;;;13.31;89.24;101032.69;5031392;28;20452;-49
2022/05/26 00:54:23;;;;;;;26.57;11.80;;;;;;;13.30;89.70;101031.88;5032007;28;20476;-49
2022/05/26 00:56:54;;;;;;;21.93;10.73;;;;;;;13.29;90.57;101030.22;5032438;28;20819;-45
2022/05/26 00:59:28;;;;;;;26.97;10.80;;;;;;;13.26;90.78;101030.63;5032495;28;20436;-48
2022/05/26 01:01:58;;;;;;;23.00;10.17;;;;;;;13.29;90.50;101035.56;5031928;28;20452;-45
2022/05/26 01:04:31;;;;;;;25.33;11.13;;;;;;;13.29;91.41;101030.22;5031767;28;20977;-48
2022/05/26 01:07:07;;;;;;;32.13;10.80;;;;;;;13.23;91.89;101039.06;5032496;28;20834;-45
2022/05/26 01:09:36;;;;;;;33.97;10.50;;;;;;;13.25;91.77;101036.22;5029642;28;20451;-47
2022/05/26 01:12:05;;;;;;;23.30;10.40;;;;;;;13.24;91.84;101027.34;5029176;28;21007;-45
2022/05/26 01:14:38;;;;;;;19.90;9.67;;;;;;;13.23;91.91;101031.03;5029730;28;20436;-45
2022/05/26 01:17:14;;;;;;;26.33;10.40;;;;;;;13.25;92.24;101036.22;5032229;28;20518;-49
2022/05/26 01:20:22;;;;;;;33.33;10.97;;;;;;;13.26;92.58;101043.22;5032187;28;20416;-45
2022/05/26 01:23:28;;;;;;;19.40;10.73;;;;;;;13.27;92.89;101040.31;5031567;28;20478;-48
2022/05/26 01:26:23;;;;;;;19.47;10.37;;;;;;;13.24;93.34;101045.25;5010866;28;20432;-51
2022/05/26 01:29:18;;;;;;;31.17;10.83;;;;;;;13.21;93.74;101043.81;5031922;28;20519;-49
2022/05/26 01:31:55;;;;;;;25.37;10.47;;;;;;;13.21;93.79;101051.84;5031550;28;20482;-45
2022/05/26 01:34:34;;;;;;;27.47;10.23;;;;;;;13.20;93.72;101052.06;5031529;28;20795;-46
2022/05/26 01:37:12;;;;;;;31.70;10.47;;;;;;;13.20;93.33;101049.41;5031740;28;20473;-47
2022/05/26 01:39:49;;;;;;;29.73;10.43;;;;;;;13.20;93.53;101047.53;5031703;28;20434;-47
2022/05/26 01:42:26;;;;;;;24.20;10.40;;;;;;;13.18;93.80;101052.25;5030952;28;20448;-45
2022/05/26 01:44:59;;;;;;;22.83;8.93;;;;;;;13.20;93.51;101057.44;5031875;28;20917;-46
2022/05/26 01:47:41;;;;;;;28.90;9.73;;;;;;;13.20;93.89;101052.88;5032260;28;20425;-50
2022/05/26 01:50:18;;;;;;;26.63;10.13;;;;;;;13.21;94.57;101059.06;5031512;28;20432;-45
2022/05/26 01:52:55;;;;;;;27.70;10.17;;;;;;;13.18;95.12;101062.97;5031422;28;20455;-47
2022/05/26 01:55:27;;;;;;;32.23;10.33;;;;;;;13.22;94.91;101069.59;5031607;28;20423;-46
2022/05/26 01:57:58;;;;;;;23.10;10.60;;;;;;;13.25;95.10;101071.03;5031555;28;20472;-46
2022/05/26 02:00:26;;;;;;;28.40;9.83;;;;;;;13.21;95.48;101075.13;5031239;28;20797;-46
2022/05/26 02:03:01;;;;;;;20.97;9.00;;;;;;;13.24;95.11;101074.72;5033203;28;20460;-46
2022/05/26 02:05:32;;;;;;;26.63;9.40;;;;;;;13.23;96.16;101073.09;5035963;28;20459;-46
2022/05/26 02:08:05;;;;;;;25.97;9.80;;;;;;;13.23;95.73;101067.72;5035543;28;20433;-51
2022/05/26 02:10:37;;;;;;;26.10;9.90;;;;;;;13.21;96.34;101070.59;5035325;28;20448;-47
2022/05/26 02:13:09;;;;;;;22.07;9.60;;;;;;;13.21;95.95;101075.97;5034945;28;20460;-50
2022/05/26 02:15:40;;;;;;;23.70;9.63;;;;;;;13.23;96.29;101079.25;5035608;28;20438;-50
2022/05/26 02:18:15;;;;;;;22.13;9.67;;;;;;;13.20;96.20;101073.50;5035228;28;20529;-48
2022/05/26 02:20:48;;;;;;;26.73;9.70;;;;;;;13.20;96.24;101073.50;5035000;28;20817;-46
2022/05/26 02:23:23;;;;;;;23.60;9.87;;;;;;;13.20;96.04;101092.25;5034847;28;20464;-47
2022/05/26 02:25:51;;;;;;;16.13;8.70;;;;;;;13.20;96.12;101076.97;5035366;28;20825;-47
2022/05/26 02:28:19;;;;;;;27.93;10.40;;;;;;;13.13;96.50;101080.69;5035296;28;21003;-46
2022/05/26 02:30:47;;;;;;;25.37;9.40;;;;;;;13.14;95.95;101085.81;5034840;28;20806;-47
2022/05/26 02:33:18;;;;;;;20.67;9.73;;;;;;;13.16;95.91;101086.47;5034913;28;20467;-46
2022/05/26 02:35:47;;;;;;;27.47;10.93;;;;;;;13.17;96.18;101081.94;5035046;28;20428;-47
2022/05/26 02:38:17;;;;;;;37.73;10.63;;;;;;;13.15;96.21;101089.34;5035277;28;20471;-45
2022/05/26 02:40:46;;;;;;;26.30;12.03;;;;;;;13.12;96.42;101093.25;5034495;28;20452;-47
2022/05/26 02:43:19;;;;;;;30.40;10.43;;;;;;;13.14;95.96;101090.38;5034494;28;20456;-50
2022/05/26 02:45:57;;;;;;;19.03;9.67;;;;;;;13.16;96.25;101099.03;5034852;28;20441;-46
2022/05/26 02:48:44;;;;;;;26.00;9.30;;;;;;;13.17;96.38;101090.78;5034613;28;20802;-47
2022/05/26 02:51:18;;;;;;;29.50;11.47;;;;;;;13.17;96.55;101090.78;5034497;28;20452;-46
2022/05/26 02:53:55;;;;;;;26.23;10.77;;;;;;;13.17;96.44;101101.50;5034356;28;20464;-46
2022/05/26 02:56:37;;;;;;;22.43;10.40;;;;;;;13.16;96.67;101099.03;5034630;28;20439;-45
2022/05/26 02:59:14;;;;;;;32.47;8.90;;;;;;;13.15;97.12;101100.03;5034845;28;20440;-48
2022/05/26 03:01:49;;;;;;;22.90;10.20;;;;;;;13.14;96.93;101109.94;5034265;28;21165;-47
2022/05/26 03:04:23;;;;;;;22.40;9.80;;;;;;;13.13;96.84;101105.63;5034094;28;20837;-45
2022/05/26 03:06:55;;;;;;;30.23;9.73;;;;;;;13.16;96.95;101107.06;5034621;28;20435;-46
2022/05/26 03:09:24;;;;;;;24.10;9.90;;;;;;;13.15;96.63;101106.22;5034300;28;20440;-46
2022/05/26 03:11:54;;;;;;;24.50;10.23;;;;;;;13.16;96.99;101102.53;5034186;28;20458;-48
2022/05/26 03:14:22;;;;;;;26.27;9.17;;;;;;;13.14;97.25;101099.22;5033190;28;20462;-48
2022/05/26 03:16:50;;;;;;;26.60;10.23;;;;;;;13.12;97.33;101109.31;5034278;28;20432;-45
2022/05/26 03:19:19;;;;;;;29.27;8.60;;;;;;;13.10;97.84;101113.22;5034228;28;20439;-51
2022/05/26 03:21:47;;;;;;;24.87;10.57;;;;;;;13.07;97.80;101105.56;5033750;28;20454;-45
2022/05/26 03:24:15;;;;;;;16.17;8.50;;;;;;;13.06;97.72;101099.38;5033782;28;21005;-47
2022/05/26 03:26:43;;;;;;;14.87;7.30;;;;;;;13.11;97.79;101107.66;5034167;28;20806;-45
2022/05/26 03:29:10;;;;;;;17.73;9.60;;;;;;;13.05;98.46;101100.41;5034188;28;20433;-46
2022/05/26 03:31:38;;;;;;;19.23;8.43;;;;;;;13.09;98.50;101114.25;5033541;28;20834;-45
2022/05/26 03:42:37;;;;;;;21.33;8.27;;;;;;;13.20;99.48;101124.38;4971986;28;21071;-50
2022/05/26 03:45:06;;;;;;;21.00;9.13;;;;;;;13.17;99.60;101138.19;4972647;28;20462;-48
2022/05/26 03:47:34;;;;;;;31.70;10.40;;;;;;;13.19;99.70;101128.06;5000618;28;20438;-49
2022/05/26 03:50:02;;;;;;;19.60;8.10;;;;;;;13.22;99.84;101122.31;5033679;28;20446;-45
2022/05/26 03:52:31;;;;;;;15.47;8.20;;;;;;;13.32;99.85;101130.75;5032972;28;20470;-45
2022/05/26 03:54:58;;;;;;;19.07;7.87;;;;;;;13.40;99.82;101132.41;5033343;28;20436;-48
2022/05/26 03:57:29;;;;;;;19.83;7.80;;;;;;;13.51;99.67;101124.59;5033601;28;20476;-48
2022/05/26 03:59:57;;;;;;;18.03;7.70;;;;;;;13.58;99.49;101130.78;5033576;28;20912;-48
2022/05/26 04:02:25;;;;;;;19.10;7.07;;;;;;;13.63;99.18;101139.03;5032821;28;20478;-46
2022/05/26 04:04:53;;;;;;;14.90;7.43;;;;;;;13.60;98.31;101130.56;5033476;28;20520;-50
2022/05/26 04:07:20;;;;;;;16.23;7.30;;;;;;;13.54;97.15;101144.78;5033253;28;20940;-47
2022/05/26 04:09:49;;;;;;;11.80;5.90;;;;;;;13.57;97.09;101139.84;5033160;28;20440;-50
2022/05/26 04:12:18;;;;;;;10.80;5.73;;;;;;;13.63;96.96;101147.06;5032701;28;20448;-45
2022/05/26 04:14:45;;;;;;;25.23;6.93;;;;;;;13.66;96.20;101143.97;5033252;28;20527;-50
2022/05/26 04:17:13;;;;;;;17.50;7.13;;;;;;;13.73;95.68;101147.47;5032977;28;20929;-45
2022/05/26 04:19:41;;;;;;;17.10;6.73;;;;;;;13.87;95.43;101150.97;5033145;28;20930;-49
2022/05/26 04:22:18;;;;;;;9.03;5.63;;;;;;;14.50;94.34;101152.06;5032161;28;20460;-51
2022/05/26 04:24:48;;;;;;;9.67;4.90;;;;;;;15.94;94.69;101147.63;5032965;28;20522;-48
2022/05/26 04:27:19;;;;;;;11.40;5.60;;;;;;;16.92;80.19;101157.28;5031958;28;20922;-46
2022/05/26 04:29:47;;;;;;;13.93;5.50;;;;;;;17.36;74.80;101163.28;5032940;28;20451;-46
2022/05/26 04:32:16;;;;;;;15.50;5.13;;;;;;;17.12;69.88;101163.22;5031997;28;20460;-48
2022/05/26 04:34:45;;;;;;;8.43;5.33;;;;;;;16.97;71.78;101168.19;5032681;28;20443;-49
2022/05/26 04:37:13;;;;;;;13.80;4.90;;;;;;;16.57;71.28;101169.75;5032902;28;20438;-45
2022/05/26 04:39:40;;;;;;;10.07;5.23;;;;;;;16.18;71.65;101172.84;5032697;28;20501;-48
2022/05/26 04:42:09;;;;;;;8.33;4.50;;;;;;;16.00;73.14;101176.34;5032014;28;20456;-46
2022/05/26 04:44:43;;;;;;;11.10;5.57;;;;;;;15.86;73.54;101186.38;5032562;28;20429;-49
2022/05/26 04:47:11;;;;;;;12.83;6.20;;;;;;;15.95;74.36;101192.31;5032553;28;20421;-49
2022/05/26 04:49:40;;;;;;;7.60;4.73;;;;;;;15.87;74.03;101187.22;5032675;28;20429;-48
2022/05/26 04:52:10;;;;;;;12.03;5.57;;;;;;;16.25;75.13;101195.94;5031817;28;20449;-48
2022/05/26 04:54:38;;;;;;;6.70;4.60;;;;;;;16.32;72.17;101187.81;5032374;28;20436;-46
2022/05/26 04:57:08;;;;;;;10.50;5.37;;;;;;;16.85;73.26;101191.56;5032519;28;20423;-50
2022/05/26 04:59:36;;;;;;;14.83;4.70;;;;;;;17.73;69.23;101197.16;5032199;28;20559;-47
2022/05/26 05:02:05;;;;;;;12.17;5.63;;;;;;;18.18;68.86;101187.47;5032132;28;20452;-46
2022/05/26 05:04:32;;;;;;;13.03;5.40;;;;;;;18.04;65.24;101191.44;5032201;28;20444;-46
2022/05/26 05:07:00;;;;;;;11.90;5.40;;;;;;;19.17;65.01;101188.16;5032211;28;20468;-48
2022/05/26 05:09:28;;;;;;;13.10;5.80;;;;;;;20.21;63.14;101198.31;5032296;28;20438;-48
2022/05/26 05:11:56;;;;;;;14.53;6.30;;;;;;;21.11;56.22;101197.91;5031840;28;20456;-48
2022/05/26 05:14:23;;;;;;;10.57;5.77;;;;;;;21.75;57.16;101198.75;5031517;28;20470;-48
2022/05/26 05:16:51;;;;;;;7.93;5.57;;;;;;;22.07;49.60;101206.94;5032342;28;20428;-46
2022/05/26 05:19:20;;;;;;;8.30;5.50;;;;;;;22.57;49.68;101192.81;5032114;28;20467;-46
2022/05/26 05:21:56;;;;;;;8.03;5.20;;;;;;;23.36;47.12;101204.22;5031628;28;20447;-46
2022/05/26 05:24:29;;;;;;;9.80;4.83;;;;;;;23.60;50.20;101202.66;5031656;28;20463;-46
2022/05/26 05:27:01;;;;;;;8.73;4.67;;;;;;;23.93;47.48;101204.00;5032097;28;20442;-48
2022/05/26 05:29:34;;;;;;;8.63;5.33;;;;;;;24.26;43.28;101208.06;5032076;28;20446;-45
2022/05/26 05:32:07;;;;;;;5.93;4.33;;;;;;;24.63;43.45;101219.44;5031437;28;20502;-44
2022/05/26 05:34:39;;;;;;;7.93;4.50;;;;;;;24.53;41.81;101213.19;5031655;28;20525;-44
2022/05/26 05:37:07;;;;;;;10.60;6.10;;;;;;;24.84;41.74;101211.19;5031406;28;20439;-45
2022/05/26 05:39:35;;;;;;;8.80;5.00;;;;;;;24.64;42.65;101221.06;5031848;28;20475;-50
2022/05/26 05:42:04;;;;;;;8.93;4.63;;;;;;;25.05;44.75;101224.47;5031597;28;20463;-44
2022/05/26 05:44:33;;;;;;;9.70;5.10;;;;;;;25.27;43.38;101213.13;5031622;28;20999;-47
2022/05/26 05:47:01;;;;;;;11.63;5.27;;;;;;;24.78;39.74;101224.84;5031819;28;20435;-49
2022/05/26 05:49:31;;;;;;;5.83;4.23;;;;;;;24.77;44.38;101228.66;5031609;28;20526;-45
2022/05/26 05:52:06;;;;;;;6.60;4.50;;;;;;;24.92;42.90;101226.97;5031531;28;20452;-50
2022/05/26 05:54:34;;;;;;;7.40;4.80;;;;;;;25.13;41.68;101233.97;5031557;28;20865;-52
2022/05/26 05:57:02;;;;;;;8.30;5.20;;;;;;;25.16;39.97;101223.31;5031682;28;20432;-45
2022/05/26 05:59:29;;;;;;;8.40;5.00;;;;;;;24.70;42.00;101241.75;5031553;28;20475;-51
2022/05/26 06:01:57;;;;;;;6.80;4.87;;;;;;;24.33;40.92;101244.06;5031082;28;20455;-49
2022/05/26 06:04:44;;;;;;;7.00;4.33;;;;;;;24.07;40.77;101243.22;5031510;28;20455;-45
2022/05/26 06:07:18;;;;;;;12.73;5.70;;;;;;;23.12;43.99;101244.72;5031834;28;20438;-49
2022/05/26 06:09:47;;;;;;;13.27;6.03;;;;;;;21.70;46.11;101258.44;5031655;28;20515;-45
2022/05/26 06:12:15;;;;;;;6.30;5.67;;;;;;;22.33;47.18;101265.78;5030746;28;20455;-47
2022/05/26 06:14:43;;;;;;;7.90;5.43;;;;;;;21.71;46.67;101251.97;5031654;28;20794;-47
2022/05/26 06:17:11;;;;;;;12.20;5.83;;;;;;;21.74;46.89;101258.75;5031650;28;20450;-48
2022/05/26 06:19:40;;;;;;;12.60;5.70;;;;;;;21.37;48.04;101256.78;5031428;28;20479;-47
2022/05/26 06:22:10;;;;;;;9.57;5.40;;;;;;;21.67;48.87;101263.56;5030766;28;20458;-45
2022/05/26 06:24:39;;;;;;;8.63;5.10;;;;;;;22.74;48.32;101255.16;5031450;28;20431;-48
2022/05/26 06:29:51;;;;;;;10.77;5.73;;;;;;;23.29;43.31;101269.00;5031224;28;20424;-46
2022/05/26 06:37:52;;;;;;;10.17;5.07;;;;;;;23.16;43.29;101272.22;5031529;28;20435;-52
2022/05/26 06:40:22;;;;;;;6.70;4.80;;;;;;;22.89;45.77;101266.13;5030793;28;20475;-47
2022/05/26 06:42:49;;;;;;;6.97;5.13;;;;;;;23.52;44.28;101273.16;5030810;28;20857;-44
2022/05/26 06:45:19;;;;;;;9.97;4.70;;;;;;;24.13;42.20;101280.31;5031200;28;20438;-47
2022/05/26 06:47:47;;;;;;;16.63;5.30;;;;;;;24.85;42.65;101272.84;5031188;28;20813;-49
2022/05/26 06:50:15;;;;;;;9.10;4.90;;;;;;;24.12;43.03;101284.16;5032995;28;20430;-49
2022/05/26 06:52:43;;;;;;;5.93;4.90;;;;;;;22.70;42.73;101289.44;5034423;28;20459;-48
2022/05/26 06:55:12;;;;;;;11.17;5.13;;;;;;;21.80;44.42;101293.03;5034911;28;20438;-47
2022/05/26 06:57:40;;;;;;;10.83;5.37;;;;;;;21.45;46.63;101293.47;5034798;28;20427;-48
2022/05/26 07:00:11;;;;;;;10.33;5.33;;;;;;;21.28;46.95;101298.16;5034441;28;21000;-48
2022/05/26 07:02:39;;;;;;;12.03;5.97;;;;;;;20.35;49.32;101291.72;5034299;28;20470;-47
2022/05/26 07:05:10;;;;;;;14.30;4.80;;;;;;;21.14;46.97;101292.31;5034574;28;20435;-48
2022/05/26 07:07:37;;;;;;;12.50;5.10;;;;;;;20.98;47.51;101301.28;5033429;28;20801;-48
2022/05/26 07:10:06;;;;;;;10.07;5.80;;;;;;;20.37;49.49;101308.53;5034512;28;20428;-48
2022/05/26 07:12:34;;;;;;;12.20;5.50;;;;;;;19.94;50.24;101311.06;5033389;28;20462;-45
2022/05/26 07:15:06;;;;;;;11.03;5.50;;;;;;;19.62;50.86;101318.06;5034224;28;20442;-48
2022/05/26 07:17:34;;;;;;;15.90;5.67;;;;;;;19.38;52.15;101325.41;5034453;28;20526;-46
2022/05/26 07:20:02;;;;;;;11.10;5.63;;;;;;;19.93;51.55;101322.13;5034285;28;20475;-45
2022/05/26 07:22:30;;;;;;;11.17;5.93;;;;;;;18.87;54.91;101334.34;5033020;28;20452;-50
2022/05/26 07:24:58;;;;;;;14.30;6.20;;;;;;;18.21;56.15;101332.75;5034076;28;20431;-47
2022/05/26 07:27:25;;;;;;;15.13;6.57;;;;;;;18.12;56.24;101336.03;5033895;28;20432;-46
2022/05/26 07:29:53;;;;;;;14.20;4.83;;;;;;;19.42;54.27;101332.00;5034213;28;20428;-47
2022/05/26 07:32:24;;;;;;;8.90;5.60;;;;;;;19.40;53.13;101336.00;5033349;28;20543;-45
2022/05/26 07:34:51;;;;;;;6.47;5.27;;;;;;;18.82;52.09;101339.59;5033469;28;20424;-47
2022/05/26 07:42:51;;;;;;;9.13;6.17;;;;;;;17.59;56.89;101355.66;5033243;28;20490;-47
2022/05/26 07:45:19;;;;;;;11.30;5.50;;;;;;;17.39;57.48;101352.38;5033826;28;20431;-49
2022/05/26 07:47:49;;;;;;;10.80;5.80;;;;;;;17.64;57.20;101360.38;5033618;28;20435;-49
2022/05/26 07:50:20;;;;;;;9.90;5.07;;;;;;;17.77;56.29;101346.69;5032773;28;20424;-44
2022/05/26 07:52:49;;;;;;;13.57;5.03;;;;;;;18.46;54.79;101354.13;5033377;28;20463;-43
2022/05/26 07:55:18;;;;;;;8.03;4.70;;;;;;;18.58;53.86;101360.41;5033703;28;20514;-43
2022/05/26 07:57:46;;;;;;;9.70;4.87;;;;;;;18.41;55.19;101356.72;5033575;28;20458;-49
2022/05/26 08:00:16;;;;;;;11.73;5.57;;;;;;;18.63;54.23;101367.81;5057627;22;20467;-47
2022/05/26 08:02:44;;;;;;;8.93;5.17;;;;;;;18.41;54.03;101372.94;5015104;28;20472;-45
2022/05/26 08:05:14;;;;;;;6.80;4.50;;;;;;;18.44;53.99;101367.06;5015869;28;20483;-49
2022/05/26 08:07:43;;;;;;;6.07;4.10;;;;;;;18.21;54.49;101375.13;5013374;28;20443;-44
2022/05/26 08:10:13;;;;;;;13.47;5.67;;;;;;;18.40;55.29;101378.56;5032523;28;20438;-49
2022/05/26 08:12:40;;;;;;;9.37;4.40;;;;;;;18.79;54.20;101367.94;5012856;28;20468;-45
2022/05/26 08:15:10;;;;;;;8.93;4.93;;;;;;;18.55;53.41;101376.25;5013114;28;20429;-47
2022/05/26 08:17:38;;;;;;;8.23;4.20;;;;;;;19.23;52.13;101384.59;5012622;28;20437;-47
2022/05/26 08:20:08;;;;;;;4.67;3.90;;;;;;;19.17;53.66;101388.25;5010189;28;20567;-52
2022/05/26 08:22:37;;;;;;;6.40;4.77;;;;;;;18.92;51.90;101388.50;4993036;28;20454;-47
2022/05/26 08:25:06;;;;;;;5.33;3.90;;;;;;;18.76;51.49;101378.38;4993101;28;20465;-46
2022/05/26 08:27:34;;;;;;;10.40;4.97;;;;;;;18.99;52.00;101380.28;4992952;28;20472;-46
2022/05/26 08:30:01;;;;;;;7.03;4.70;;;;;;;19.19;53.38;101389.66;4995494;28;20436;-45
2022/05/26 08:32:29;;;;;;;9.23;4.63;;;;;;;19.00;51.28;101392.69;5012124;28;20533;-47
2022/05/26 08:34:58;;;;;;;7.90;4.63;;;;;;;18.73;53.04;101403.16;5012958;28;20433;-45
2022/05/26 08:37:25;;;;;;;11.40;4.73;;;;;;;19.12;51.99;101399.75;4991722;28;20442;-46
2022/05/26 08:39:54;;;;;;;7.73;4.33;;;;;;;19.44;51.96;101405.63;4993182;28;20484;-49
2022/05/26 08:42:27;;;;;;;5.20;4.30;;;;;;;19.36;51.35;101414.06;4992519;28;20942;-45
2022/05/26 08:45:00;;;;;;;8.60;5.10;;;;;;;19.44;50.03;101418.31;4993306;28;20628;-46
2022/05/26 08:47:33;;;;;;;7.10;4.40;;;;;;;18.74;51.07;101412.94;4993359;28;20429;-49
2022/05/26 08:50:05;;;;;;;6.50;4.60;;;;;;;19.24;51.84;101421.38;4993163;28;21179;-49
2022/05/26 08:52:36;;;;;;;10.17;4.93;;;;;;;19.05;52.26;101420.69;4992015;28;20465;-44
2022/05/26 08:55:12;;;;;;;13.10;4.60;;;;;;;19.01;52.49;101427.63;4993046;28;20426;-45
2022/05/26 08:57:43;;;;;;;5.67;3.90;;;;;;;18.83;51.01;101416.94;4992797;28;20447;-46
2022/05/26 09:00:16;;;;;;;8.57;4.27;;;;;;;19.13;50.92;101416.81;4992817;28;20982;-47
2022/05/26 09:02:44;;;;;;;6.43;4.43;;;;;;;19.23;49.69;101415.13;4992468;28;20492;-45
2022/05/26 09:05:17;;;;;;;5.53;3.90;;;;;;;19.69;48.53;101410.72;4993006;28;20468;-46
2022/05/26 09:13:33;;;;;;;7.60;4.37;;;;;;;18.92;50.44;101434.44;5002617;28;20465;-48
2022/05/26 09:16:04;;;;;;;7.70;4.17;;;;;;;18.82;51.67;101438.78;5001442;28;20423;-45
2022/05/26 09:18:31;;;;;;;4.67;4.27;;;;;;;19.43;51.16;101444.56;5002362;28;20424;-46
2022/05/26 09:21:13;;;;;;;5.83;3.93;;;;;;;19.36;50.71;101446.50;5003427;28;20480;-47
2022/05/26 09:23:44;;;;;;;5.50;4.13;;;;;;;19.19;50.29;101441.03;4991609;28;20561;-46
2022/05/26 09:26:18;;;;;;;9.30;4.20;;;;;;;19.47;49.76;101451.13;4992364;28;20787;-46
2022/05/26 09:28:49;;;;;;;5.47;4.00;;;;;;;18.91;51.07;101462.50;5000585;28;20857;-47
2022/05/26 09:31:24;;;;;;;8.63;5.03;;;;;;;19.03;51.55;101463.34;4995151;28;20462;-47
2022/05/26 09:34:05;;;;;;;8.83;4.20;;;;;;;18.92;51.30;101457.94;4991766;28;20479;-46
2022/05/26 09:36:38;;;;;;;9.20;4.30;;;;;;;18.96;51.56;101472.63;4992244;28;20915;-44
2022/05/26 09:39:06;;;;;;;4.90;3.70;;;;;;;18.51;51.88;101459.66;5003004;28;20453;-46
2022/05/26 09:41:41;;;;;;;8.20;4.07;;;;;;;18.38;51.32;101478.72;4993613;28;20855;-44
2022/05/26 09:44:24;;;;;;;5.87;4.03;;;;;;;18.10;51.03;101465.81;4987446;28;20509;-45
2022/05/26 09:46:55;;;;;;;5.13;4.00;;;;;;;18.29;53.39;101488.19;5001543;28;20942;-51
2022/05/26 09:49:31;;;;;;;4.33;4.00;;;;;;;18.65;51.53;101487.25;4995309;28;20441;-48
2022/05/26 09:52:16;;;;;;;5.87;4.33;;;;;;;18.39;52.97;101491.16;5003003;28;20449;-51
2022/05/26 09:54:46;;;;;;;5.20;3.80;;;;;;;19.01;51.38;101481.69;5006318;28;20455;-45
2022/05/26 09:57:22;;;;;;;6.67;3.60;;;;;;;18.87;50.52;101477.56;5004153;28;20429;-48
2022/05/26 09:59:50;;;;;;;9.70;3.50;;;;;;;18.94;50.16;101483.66;4998752;28;20443;-45
2022/05/26 10:02:22;;;;;;;10.47;3.30;;;;;;;18.95;51.12;101487.19;5000563;28;20487;-47
2022/05/26 10:05:04;;;;;;;6.60;3.23;;;;;;;19.19;50.32;101465.34;5002821;28;20426;-46
2022/05/26 10:07:43;;;;;;;4.57;3.47;;;;;;;19.34;48.47;101490.03;4991949;28;20440;-48
2022/05/26 10:10:18;;;;;;;5.73;3.97;;;;;;;19.44;49.70;101494.91;5010464;28;20969;-44
2022/05/26 10:13:11;;;;;;;10.20;4.63;;;;;;;19.75;48.78;101488.22;5001365;28;20461;-47
2022/05/26 10:15:50;;;;;;;4.33;3.70;;;;;;;20.43;45.09;101493.66;5001362;28;20430;-45
2022/05/26 10:18:53;;;;;;;5.73;3.90;;;;;;;19.97;46.46;101491.13;5009126;28;20436;-47
2022/05/26 10:21:37;;;;;;;5.63;3.83;;;;;;;19.64;46.74;101500.75;4971744;28;20481;-47
2022/05/26 10:24:26;;;;;;;4.07;3.70;;;;;;;19.73;45.99;101512.03;4997561;28;20478;-45
2022/05/26 10:27:01;;;;;;;8.73;4.00;;;;;;;19.48;45.98;101517.69;5009875;28;20914;-47
2022/05/26 10:30:02;;;;;;;7.37;4.23;;;;;;;19.47;46.81;101510.66;5004324;28;20432;-45
2022/05/26 10:32:39;;;;;;;14.53;4.50;;;;;;;19.89;48.54;101503.97;5000517;28;20457;-51
2022/05/26 10:35:18;;;;;;;8.93;4.03;;;;;;;19.77;47.11;101524.03;4999834;28;20432;-45
2022/05/26 10:38:03;;;;;;;9.27;4.33;;;;;;;19.50;47.51;101512.88;5000720;28;20440;-45
2022/05/26 10:40:43;;;;;;;7.27;3.63;;;;;;;19.11;46.87;101522.50;4997914;28;20505;-47
2022/05/26 10:43:15;;;;;;;4.53;3.50;;;;;;;18.95;46.59;101515.06;4997625;28;20624;-45
2022/05/26 10:45:48;;;;;;;4.43;3.73;;;;;;;18.65;48.59;101517.81;4994963;28;20484;-45
2022/05/26 10:48:22;;;;;;;4.47;3.50;;;;;;;18.39;49.43;101522.75;5000481;28;20527;-44
2022/05/26 10:50:58;;;;;;;9.33;3.80;;;;;;;18.44;50.26;101520.16;5009453;28;20453;-49
2022/05/26 10:53:34;;;;;;;5.83;3.50;;;;;;;18.12;51.25;101519.56;4994493;28;20468;-47
2022/05/26 10:56:10;;;;;;;8.57;3.80;;;;;;;18.70;51.67;101517.94;5005337;28;20455;-45
2022/05/26 10:58:43;;;;;;;6.20;3.57;;;;;;;19.32;47.87;101513.78;5010359;28;20440;-45
2022/05/26 11:01:22;;;;;;;5.87;3.30;;;;;;;19.64;45.56;101518.84;4994375;28;20512;-49
2022/05/26 11:03:55;;;;;;;5.20;3.73;;;;;;;19.86;45.52;101503.66;4997042;28;20460;-47
2022/05/26 11:06:26;;;;;;;3.13;2.80;;;;;;;19.60;44.34;101533.91;4999509;28;20790;-48
2022/05/26 11:08:59;;;;;;;8.20;3.50;;;;;;;19.34;44.91;101530.59;4998762;28;20956;-49
2022/05/26 11:11:34;;;;;;;6.57;3.50;;;;;;;19.27;45.28;101521.78;5008308;28;20452;-47
2022/05/26 11:14:07;;;;;;;5.00;3.43;;;;;;;19.29;46.19;101516.94;5000502;28;20543;-47
2022/05/26 11:19:39;;;;;;;6.30;3.47;;;;;;;19.66;45.69;101514.03;4997569;28;20448;-47
2022/05/26 11:22:06;;;;;;;3.50;3.30;;;;;;;20.09;44.11;101495.44;4993748;28;20485;-48
2022/05/26 11:24:34;;;;;;;3.27;2.97;;;;;;;19.83;44.01;101506.84;4994776;28;20438;-47
2022/05/26 11:27:08;;;;;;;6.70;3.63;;;;;;;19.42;46.02;101512.38;5012027;28;20439;-45
2022/05/26 11:29:40;;;;;;;7.40;3.77;;;;;;;19.23;47.37;101519.78;5006828;28;20437;-46
2022/05/26 11:38:02;;;;;;;8.83;3.90;;;;;;;18.61;47.66;101530.13;4975306;28;20799;-49
2022/05/26 11:40:42;;;;;;;5.03;3.77;;;;;;;18.78;47.97;101524.91;4974778;28;20433;-47
2022/05/26 11:43:11;;;;;;;10.70;3.77;;;;;;;19.08;47.97;101536.47;4974513;28;20470;-47
2022/05/26 11:45:50;;;;;;;7.97;3.03;;;;;;;18.76;49.07;101541.31;4975120;28;21022;-47
2022/05/26 11:48:45;;;;;;;7.40;3.80;;;;;;;18.58;50.20;101543.25;4974655;28;20442;-46
2022/05/26 11:51:38;;;;;;;6.13;3.37;;;;;;;18.32;53.09;101544.44;4971699;28;20454;-46
2022/05/26 11:54:07;;;;;;;4.37;3.73;;;;;;;18.17;51.44;101538.59;4974443;28;20856;-45
2022/05/26 11:56:48;;;;;;;9.43;4.10;;;;;;;18.53;51.56;101545.84;4975168;28;20444;-45
2022/05/26 11:59:44;;;;;;;8.80;4.60;;;;;;;19.24;50.14;101545.75;4974788;28;20441;-44
2022/05/26 12:02:39;;;;;;;3.97;3.57;;;;;;;19.00;50.30;101533.25;4973853;28;20482;-45
2022/05/26 12:05:44;;;;;;;8.03;3.40;;;;;;;18.88;47.60;101545.94;4974766;28;20456;-45
2022/05/26 12:08:38;;;;;;;5.50;4.10;;;;;;;18.37;50.33;101549.16;4974594;28;20442;-44
2022/05/26 12:11:09;;;;;;;9.00;3.60;;;;;;;18.26;51.94;101553.44;4969189;28;20553;-49
2022/05/26 12:13:40;;;;;;;4.27;3.87;;;;;;;18.12;51.41;101554.66;4974090;28;20466;-47
2022/05/26 12:16:19;;;;;;;8.03;4.80;;;;;;;17.89;54.34;101554.53;4974273;28;20427;-47
2022/05/26 12:18:51;;;;;;;7.90;3.90;;;;;;;17.58;54.14;101545.53;4973906;28;20473;-46
2022/05/26 12:21:47;;;;;;;8.50;4.83;;;;;;;17.73;56.10;101550.53;4974103;28;20816;-45